Accueil
METAR-TAF:

METAR-TAF

Aéroports :

Luni

Sarzana, Italie

latitude: 44-05N, longitude: 009-59E, altitude: 9 m

Observation

Le bulletin a été fait il y a 9 heures et 52 minutes, à 20:55 UTC
Température 12°C
Humidité 100%
Pression 1012 hPa
Visibilité: 8000 m
Nuages épars à une hauteur de 3000 ft

METAR: LIQW 202055Z /////KT 8000 SCT030 12/12 Q1012

Heure: 07:47 (06:47 UTC)

Prévision

Le bulletin a été fait il y a 10 heures et 47 minutes, à 20:00 UTC
Prévision valable du 20 à 21 UTC au 21 à 06 UTC
Vent 5 kt de direction variable
Visibilité 10 km ou plus
Nuages fragmentés à une hauteur de 4000 ft
Temporairement
du 20 à 21 UTC au 21 à 06 UTC
Visibilité: 5000 m
pluie, brume

TAF: LIQW 202000Z 2021/2106 VRB05KT 9999 BKN040 TEMPO 2021/2106 5000 RA BR

Observations et prévisions météorologiques de plus de 4000 aéroports (messages METAR et TAF).

Les stations disponibles sont représentées par des disques jaunes et rouges sur la carte.

Passer la souris dessus pour voir le nom de la station.

Cliquer dessus pour voir les observations et prévisions météorologiques.

Pour changer de carte: cliquez sur les boutons verts avec une croix noire pour zoomer, sur le bouton vert avec un tiret pour effectuer un zoom arrière, ou sur les flèches vertes pour les cartes adjacentes.


METAR-TAF: